Airport View

Enter AWOS ICAO identifier for current METAR.

ex. KFNL

KMVY 210753Z AUTO 00000KT 1/2SM R24/2600V3000FT FG VV003 17/17 A3027 RMK AO2 RAB0654E04 SLP252 P0000 T01720172 $

21 Oct 2020 08:09

Phone: 508-696-6988

Other Area AWOS: KFMH - KHYA - KEWB - KACK

TAF KFMH 210520Z 2106/2206 00000KT 1/2SM FG VCSH OVC002 FM210900 05003KT 1/2SM -DZ FG OVC003 FM211100 00000KT 1SM -DZ BR OVC003 FM211200 00000KT 1/2SM FG BKN003 FM211400 19004KT 3SM BR BKN008